createdAt,value
2018-08-20T00:02:13.270Z,43.64
2018-08-20T00:04:39.913Z,43.61
2018-08-20T00:07:06.575Z,43.57
2018-08-20T00:09:33.189Z,43.58
2018-08-20T00:11:59.837Z,43.59
2018-08-20T00:14:26.495Z,43.63
2018-08-20T00:16:53.134Z,43.62
2018-08-20T00:19:19.768Z,43.58
2018-08-20T00:21:46.411Z,43.61
2018-08-20T00:24:13.041Z,43.55
2018-08-20T00:26:39.698Z,43.54
2018-08-20T00:29:06.352Z,43.54
2018-08-20T00:31:32.989Z,43.53
2018-08-20T00:33:59.615Z,43.56
2018-08-20T00:36:26.266Z,43.54
2018-08-20T00:38:54.244Z,43.57
2018-08-20T00:41:19.545Z,43.48
2018-08-20T00:43:46.179Z,43.55
2018-08-20T00:46:12.819Z,43.49
2018-08-20T00:48:39.454Z,43.49
2018-08-20T00:51:06.100Z,43.50
2018-08-20T00:53:32.741Z,43.47
2018-08-20T00:55:59.379Z,43.48
2018-08-20T00:58:26.085Z,43.43
2018-08-20T01:00:52.720Z,43.45
2018-08-20T01:03:19.390Z,43.45
2018-08-20T01:05:46.123Z,43.50
2018-08-20T01:08:12.791Z,43.46
2018-08-20T01:10:39.398Z,43.48
2018-08-20T01:13:06.047Z,43.43
2018-08-20T01:15:32.688Z,43.42
2018-08-20T01:17:59.322Z,43.41
2018-08-20T01:20:26.045Z,43.48
2018-08-20T01:22:52.685Z,43.42
2018-08-20T01:25:22.647Z,43.44
2018-08-20T01:28:15.869Z,43.43
2018-08-20T01:30:42.498Z,43.42
2018-08-20T03:52:30.320Z,44.49
2018-08-20T03:55:07.106Z,44.52
2018-08-20T03:57:43.821Z,44.55
2018-08-20T04:00:20.550Z,44.51
2018-08-20T04:02:57.326Z,44.44
2018-08-20T04:05:34.092Z,44.50
2018-08-20T04:08:10.816Z,44.16
2018-08-20T04:10:47.655Z,44.04
2018-08-20T04:13:26.851Z,44.09
2018-08-20T04:16:01.084Z,43.86
2018-08-20T04:18:37.808Z,43.69
2018-08-20T04:21:14.579Z,44.42
2018-08-20T04:23:54.264Z,43.56
2018-08-20T04:26:27.890Z,43.87
2018-08-20T04:28:52.610Z,43.55
2018-08-20T04:31:19.342Z,43.14
2018-08-20T04:33:46.101Z,42.91
2018-08-20T04:36:12.838Z,42.82
2018-08-20T04:38:39.474Z,42.70
2018-08-20T04:41:06.111Z,42.35
2018-08-20T04:43:32.742Z,42.15
2018-08-20T04:45:59.387Z,41.96
2018-08-20T04:48:26.108Z,42.04
2018-08-20T04:50:52.822Z,42.43
2018-08-20T04:53:19.371Z,42.48
2018-08-20T04:55:46.069Z,42.30
2018-08-20T04:58:12.717Z,42.26
2018-08-20T05:00:39.386Z,42.26
2018-08-20T05:03:06.046Z,42.24
2018-08-20T05:05:32.684Z,42.12
2018-08-20T05:07:59.342Z,42.05
2018-08-20T05:10:25.980Z,41.97
2018-08-20T05:12:52.628Z,42.01
2018-08-20T05:15:19.330Z,41.93
2018-08-20T05:17:46.001Z,41.13
2018-08-20T05:20:12.639Z,41.81
2018-08-20T05:22:39.247Z,42.57
2018-08-20T05:25:05.876Z,42.88
2018-08-20T05:27:32.523Z,42.78
2018-08-20T05:29:59.160Z,42.46
2018-08-20T05:32:25.806Z,42.19
2018-08-20T05:34:52.442Z,42.55
2018-08-20T05:37:19.115Z,42.60
2018-08-20T05:39:45.758Z,42.24
2018-08-20T05:42:12.396Z,42.21
2018-08-20T05:44:39.040Z,41.83
2018-08-20T05:47:05.664Z,41.55
2018-08-20T05:49:32.296Z,41.49
2018-08-20T05:51:59.001Z,41.18
2018-08-20T05:54:25.706Z,41.03
2018-08-20T05:56:52.440Z,41.18
2018-08-20T05:59:20.452Z,40.39
2018-08-20T06:01:45.779Z,40.51
2018-08-20T06:04:12.487Z,40.47
2018-08-20T06:06:41.670Z,40.47
2018-08-20T06:09:08.276Z,40.56
2018-08-20T06:11:35.969Z,40.66
2018-08-20T06:14:02.611Z,40.83
2018-08-20T06:16:29.257Z,41.24
2018-08-20T06:18:55.965Z,41.78
2018-08-20T06:21:22.590Z,41.77
2018-08-20T06:23:49.341Z,41.46
2018-08-20T06:26:16.117Z,41.29
2018-08-20T06:28:42.863Z,41.20
2018-08-20T06:31:09.496Z,41.25
2018-08-20T06:33:36.134Z,41.23
2018-08-20T06:36:02.805Z,41.21
2018-08-20T06:38:29.443Z,41.18
2018-08-20T06:40:56.289Z,41.50
2018-08-20T06:43:22.918Z,41.37
2018-08-20T06:45:49.647Z,41.44
2018-08-20T06:48:19.559Z,41.36
2018-08-20T06:50:46.237Z,41.24
2018-08-20T06:53:12.892Z,41.31
2018-08-20T06:55:39.531Z,41.50
2018-08-20T06:58:06.295Z,41.51
2018-08-20T07:00:32.937Z,41.66
2018-08-20T07:02:59.572Z,41.70
2018-08-20T07:05:26.218Z,41.86
2018-08-20T07:07:52.949Z,41.96
2018-08-20T07:10:19.590Z,41.78
2018-08-20T07:12:46.322Z,41.83
2018-08-20T07:15:12.961Z,41.84
2018-08-20T07:17:39.642Z,42.04
2018-08-20T07:20:06.512Z,42.20
2018-08-20T07:22:33.201Z,42.24
2018-08-20T07:25:00.232Z,42.32
2018-08-20T07:27:26.925Z,42.16
2018-08-20T07:29:53.561Z,42.20
2018-08-20T07:32:20.244Z,42.11
2018-08-20T07:34:46.853Z,42.28
2018-08-20T07:37:14.933Z,42.52
2018-08-20T07:39:40.184Z,42.23
2018-08-20T07:42:06.823Z,42.27
2018-08-20T07:44:33.457Z,42.37
2018-08-20T07:47:00.087Z,42.63
2018-08-20T07:49:28.986Z,42.89
2018-08-20T07:51:53.464Z,42.89
2018-08-20T07:54:20.106Z,42.96
2018-08-20T07:56:46.792Z,43.07
2018-08-20T07:59:13.531Z,43.11
2018-08-20T08:01:40.269Z,43.37
2018-08-20T08:04:06.940Z,43.33
2018-08-20T08:06:33.544Z,43.13
2018-08-20T08:09:00.183Z,43.20
2018-08-20T08:11:26.862Z,43.33
2018-08-20T08:13:53.769Z,43.13
2018-08-20T08:16:20.425Z,43.28
2018-08-20T08:18:47.061Z,43.41
2018-08-20T08:21:13.744Z,43.43
2018-08-20T08:23:40.472Z,43.42
2018-08-20T08:26:07.169Z,43.34
2018-08-20T08:28:33.824Z,43.15
2018-08-20T08:31:00.467Z,43.13
2018-08-20T08:33:27.114Z,43.38
2018-08-20T08:35:53.783Z,43.53
2018-08-20T08:38:20.479Z,43.41
2018-08-20T08:40:47.117Z,43.30
2018-08-20T08:43:13.805Z,43.27
2018-08-20T08:45:40.454Z,43.13
2018-08-20T08:48:07.087Z,43.29
2018-08-20T08:50:33.794Z,43.19
2018-08-20T08:53:00.436Z,43.20
2018-08-20T08:55:27.073Z,43.47
2018-08-20T08:57:53.732Z,43.25
2018-08-20T09:00:20.443Z,43.11
2018-08-20T09:02:47.107Z,43.19
2018-08-20T09:05:13.796Z,43.23
2018-08-20T09:07:45.165Z,43.14
2018-08-20T09:10:08.180Z,43.05
2018-08-20T09:12:33.772Z,43.11
2018-08-20T09:15:00.424Z,43.01
2018-08-20T09:17:27.078Z,42.91
2018-08-20T09:19:53.735Z,42.91
2018-08-20T09:22:20.380Z,43.13
2018-08-20T09:24:47.043Z,42.86
2018-08-20T09:27:13.714Z,42.98
2018-08-20T09:29:40.518Z,42.94
2018-08-20T09:32:07.255Z,42.50
2018-08-20T09:34:33.890Z,42.42
2018-08-20T09:37:00.522Z,42.26
2018-08-20T09:39:28.636Z,42.54
2018-08-20T09:41:53.948Z,42.82
2018-08-20T09:44:20.591Z,42.88
2018-08-20T09:46:47.365Z,42.74
2018-08-20T09:49:14.001Z,43.00
2018-08-20T09:51:40.663Z,43.13
2018-08-20T09:54:07.640Z,42.69
2018-08-20T09:56:34.322Z,42.98
2018-08-20T09:59:01.170Z,42.60
2018-08-20T10:01:27.859Z,43.24
2018-08-20T10:03:56.830Z,43.66
2018-08-20T10:06:23.503Z,43.73
2018-08-20T10:08:50.193Z,44.07
2018-08-20T10:11:16.986Z,42.95
2018-08-20T10:13:43.757Z,42.46
2018-08-20T10:16:12.019Z,42.94
2018-08-20T10:18:37.213Z,42.88
2018-08-20T10:21:03.852Z,42.17
2018-08-20T10:23:33.553Z,42.99
2018-08-20T10:26:00.236Z,41.67
2018-08-20T10:28:27.917Z,41.66
2018-08-20T10:30:55.971Z,41.87
2018-08-20T10:33:21.289Z,42.30
2018-08-20T10:35:47.972Z,41.79
2018-08-20T10:38:16.789Z,42.18
2018-08-20T10:40:43.906Z,41.80
2018-08-20T10:43:10.573Z,42.11
2018-08-20T10:45:37.344Z,42.20
2018-08-20T10:48:04.052Z,42.05
2018-08-20T10:50:33.745Z,42.62
2018-08-20T10:53:00.395Z,43.19
2018-08-20T10:55:27.115Z,43.96
2018-08-20T10:57:53.779Z,43.47
2018-08-20T11:00:20.436Z,44.46
2018-08-20T11:02:47.110Z,44.53
2018-08-20T11:05:13.802Z,44.81
2018-08-20T11:07:40.467Z,44.79
2018-08-20T11:10:07.293Z,45.16
2018-08-20T11:12:33.975Z,45.16
2018-08-20T11:15:01.923Z,45.66
2018-08-20T11:17:28.573Z,45.47
2018-08-20T11:19:55.271Z,45.79
2018-08-20T11:22:21.965Z,45.65
2018-08-20T11:24:48.609Z,46.70
2018-08-20T11:27:15.242Z,46.77
2018-08-20T11:29:41.982Z,46.77
2018-08-20T11:32:08.577Z,46.36
2018-08-20T11:34:35.249Z,46.70
2018-08-20T11:37:01.894Z,46.61
2018-08-20T11:39:28.663Z,46.68
2018-08-20T11:41:55.404Z,45.70
2018-08-20T11:44:22.068Z,45.42
2018-08-20T11:46:48.777Z,45.16
2018-08-20T11:49:15.510Z,44.68
2018-08-20T11:51:44.217Z,44.44
2018-08-20T11:54:08.800Z,44.79
2018-08-20T11:56:35.475Z,45.17
2018-08-20T11:59:02.149Z,45.49
2018-08-20T12:01:28.847Z,45.37
2018-08-20T12:03:55.458Z,45.63
2018-08-20T12:06:22.127Z,45.97
2018-08-20T12:08:48.867Z,46.11
2018-08-20T12:11:15.494Z,45.36
2018-08-20T12:13:42.287Z,45.58
2018-08-20T12:16:08.953Z,44.31
2018-08-20T12:18:35.591Z,44.95
2018-08-20T12:21:03.339Z,44.26
2018-08-20T12:23:30.091Z,44.20
2018-08-20T12:25:56.720Z,44.43
2018-08-20T12:28:23.403Z,44.93
2018-08-20T12:30:50.081Z,45.54
2018-08-20T12:33:16.740Z,45.47
2018-08-20T12:36:03.443Z,45.47
2018-08-20T12:38:49.529Z,45.62
2018-08-20T12:41:16.429Z,45.41
2018-08-20T12:43:43.076Z,45.33
2018-08-20T12:46:09.771Z,45.16
2018-08-20T12:48:36.533Z,44.97
2018-08-20T12:51:04.448Z,44.65
2018-08-20T12:53:29.941Z,44.24
2018-08-20T12:55:56.586Z,44.37
2018-08-20T12:58:23.292Z,44.09
2018-08-20T13:00:49.934Z,44.23
2018-08-20T13:03:19.604Z,44.74
2018-08-20T13:05:46.267Z,45.55
2018-08-20T13:08:18.018Z,45.58
2018-08-20T13:10:42.932Z,45.69
2018-08-20T13:13:09.571Z,45.31
2018-08-20T13:15:36.269Z,45.53
2018-08-20T13:18:02.906Z,45.54
2018-08-20T13:20:31.994Z,45.60
2018-08-20T13:22:58.642Z,45.46
2018-08-20T13:25:25.273Z,45.27
2018-08-20T13:27:52.038Z,45.32
2018-08-20T13:30:19.992Z,44.11
2018-08-20T13:32:46.434Z,44.30
2018-08-20T13:35:13.219Z,44.54
2018-08-20T13:37:41.227Z,44.39
2018-08-20T13:40:09.835Z,43.98
2018-08-20T13:42:36.568Z,45.15
2018-08-20T13:45:04.005Z,45.42
2018-08-20T13:47:30.645Z,45.29
2018-08-20T13:49:57.275Z,45.57
2018-08-20T13:52:26.754Z,45.71
2018-08-20T13:54:53.433Z,46.32
2018-08-20T13:57:20.069Z,45.91
2018-08-20T13:59:46.766Z,45.69
2018-08-20T14:02:13.401Z,45.50
2018-08-20T14:04:40.140Z,45.43
2018-08-20T14:07:06.868Z,45.28
2018-08-20T14:09:33.548Z,45.20
2018-08-20T14:12:00.214Z,45.35
2018-08-20T14:14:26.851Z,45.37
2018-08-20T14:16:53.536Z,45.31
2018-08-20T14:19:20.198Z,45.09
2018-08-20T14:21:47.007Z,44.47
2018-08-20T14:24:13.666Z,44.72
2018-08-20T14:26:40.330Z,45.75
2018-08-20T14:29:06.948Z,46.60
2018-08-20T14:31:33.583Z,46.29
2018-08-20T14:34:00.295Z,46.02
2018-08-20T14:36:27.002Z,45.92
2018-08-20T14:38:53.710Z,45.87
2018-08-20T14:41:20.759Z,45.98
2018-08-20T14:43:47.367Z,46.06
2018-08-20T14:46:14.041Z,46.12
2018-08-20T14:48:43.290Z,46.12
2018-08-20T14:51:10.021Z,46.42
2018-08-20T14:53:38.927Z,46.13
2018-08-20T14:56:06.625Z,46.21
2018-08-20T14:58:33.320Z,46.25
2018-08-20T15:00:59.989Z,46.33
2018-08-20T15:03:26.718Z,46.37
2018-08-20T15:05:53.456Z,46.45
2018-08-20T15:08:20.134Z,46.34
2018-08-20T15:10:46.808Z,46.83
2018-08-20T15:13:13.495Z,46.72
2018-08-20T15:15:40.332Z,46.82
2018-08-20T15:18:06.831Z,46.72
2018-08-20T15:20:33.602Z,45.87
2018-08-20T15:23:00.259Z,46.85
2018-08-20T15:25:26.898Z,48.45
2018-08-20T15:27:53.598Z,48.47
2018-08-20T15:30:20.310Z,48.91
2018-08-20T15:32:47.080Z,48.78
2018-08-20T15:35:13.639Z,48.24
2018-08-20T15:37:40.281Z,47.92
2018-08-20T15:40:06.924Z,47.70
2018-08-20T15:42:33.574Z,47.58
2018-08-20T15:45:00.215Z,47.52
2018-08-20T15:47:26.859Z,47.55
2018-08-20T15:49:53.511Z,47.57
2018-08-20T15:52:20.233Z,47.62
2018-08-20T15:54:46.877Z,47.66
2018-08-20T15:57:13.689Z,47.74
2018-08-20T15:59:40.461Z,47.88
2018-08-20T16:02:07.086Z,47.82
2018-08-20T16:04:33.888Z,47.96
2018-08-20T16:07:00.526Z,48.04
2018-08-20T16:09:27.164Z,47.87
2018-08-20T16:11:53.833Z,48.20
2018-08-20T16:14:20.485Z,48.22
2018-08-20T16:16:47.151Z,48.32
2018-08-20T16:19:13.812Z,48.43
2018-08-20T16:21:40.471Z,48.53
2018-08-20T16:24:07.149Z,48.68
2018-08-20T16:26:33.784Z,48.95
2018-08-20T16:29:00.519Z,48.91
2018-08-20T16:31:27.154Z,49.02
2018-08-20T16:33:53.823Z,49.16
2018-08-20T16:36:20.502Z,49.22
2018-08-20T16:38:47.114Z,49.22
2018-08-20T16:41:13.838Z,49.20
2018-08-20T16:43:40.510Z,49.48
2018-08-20T16:46:07.225Z,49.52
2018-08-20T16:48:33.862Z,49.64
2018-08-20T16:51:00.598Z,49.69
2018-08-20T16:53:27.151Z,49.84
2018-08-20T16:55:53.782Z,49.77
2018-08-20T16:58:20.427Z,49.96
2018-08-20T17:00:47.080Z,49.90
2018-08-20T17:03:13.800Z,49.89
2018-08-20T17:05:43.178Z,49.71
2018-08-20T17:08:09.942Z,49.63
2018-08-20T17:10:36.638Z,49.92
2018-08-20T17:13:03.267Z,49.88
2018-08-20T17:15:29.979Z,50.07
2018-08-20T17:17:56.617Z,50.11
2018-08-20T17:20:23.256Z,49.94
2018-08-20T17:22:49.907Z,49.97
2018-08-20T17:25:16.632Z,50.00
2018-08-20T17:27:43.280Z,49.96
2018-08-20T17:30:09.925Z,50.01
2018-08-20T17:32:38.421Z,50.12
2018-08-20T17:35:03.223Z,50.18
2018-08-20T17:37:30.230Z,50.34
2018-08-20T17:39:56.860Z,50.11
2018-08-20T17:42:23.526Z,50.15
2018-08-20T17:44:50.154Z,50.11
2018-08-20T17:47:16.802Z,50.09
2018-08-20T17:49:43.491Z,50.08
2018-08-20T17:52:12.349Z,50.00
2018-08-20T17:54:39.001Z,50.03
2018-08-20T17:57:05.688Z,50.01
2018-08-20T17:59:32.287Z,49.84
2018-08-20T18:01:59.311Z,49.92
2018-08-20T18:04:27.197Z,49.69
2018-08-20T18:06:52.562Z,49.78
2018-08-20T18:09:19.294Z,49.91
2018-08-20T18:11:46.028Z,49.80
2018-08-20T18:14:12.759Z,49.85
2018-08-20T18:16:39.500Z,49.72
2018-08-20T18:19:06.137Z,49.81
2018-08-20T18:21:34.141Z,49.84
2018-08-20T18:23:59.513Z,49.67
2018-08-20T18:26:26.196Z,49.61
2018-08-20T18:28:52.845Z,49.51
2018-08-20T18:31:20.759Z,49.61
2018-08-20T18:33:46.132Z,49.53
2018-08-20T18:36:12.958Z,49.52
2018-08-20T18:38:39.698Z,49.54
2018-08-20T18:41:06.413Z,49.58
2018-08-20T18:43:33.125Z,49.54
2018-08-20T18:45:59.741Z,49.53
2018-08-20T18:48:26.413Z,49.44
2018-08-20T18:50:53.083Z,49.55
2018-08-20T18:53:19.813Z,49.46
2018-08-20T18:55:48.232Z,49.58
2018-08-20T18:58:13.123Z,49.53
2018-08-20T19:00:39.750Z,49.44
2018-08-20T19:03:06.392Z,49.41
2018-08-20T19:05:33.129Z,49.39
2018-08-20T19:07:59.768Z,49.38
2018-08-20T19:10:27.050Z,49.37
2018-08-20T19:12:53.688Z,49.33
2018-08-20T19:15:20.326Z,49.31
2018-08-20T19:17:50.231Z,49.39
2018-08-20T19:20:18.275Z,49.33
2018-08-20T19:22:46.830Z,49.29
2018-08-20T19:25:13.566Z,49.29
2018-08-20T19:27:40.200Z,49.27
2018-08-20T19:30:06.851Z,49.22
2018-08-20T19:32:33.575Z,49.19
2018-08-20T19:35:00.298Z,49.22
2018-08-20T19:37:28.526Z,49.17
2018-08-20T19:39:53.618Z,49.26
2018-08-20T19:42:20.329Z,49.24
2018-08-20T19:44:46.972Z,49.13
2018-08-20T19:47:13.632Z,49.17
2018-08-20T19:49:41.615Z,49.15
2018-08-20T19:52:06.935Z,49.11
2018-08-20T19:54:33.673Z,49.14
2018-08-20T19:57:00.326Z,49.23
2018-08-20T19:59:26.999Z,49.08
2018-08-20T20:01:53.640Z,49.07
2018-08-20T20:04:20.325Z,49.05
2018-08-20T20:06:46.995Z,49.03
2018-08-20T20:09:13.673Z,48.90
2018-08-20T20:11:40.314Z,48.92
2018-08-20T20:14:06.952Z,48.99
2018-08-20T20:16:33.602Z,48.99
2018-08-20T20:19:00.796Z,48.84
2018-08-20T20:21:30.506Z,48.87
2018-08-20T20:23:57.112Z,48.80
2018-08-20T20:26:23.758Z,48.78
2018-08-20T20:28:50.430Z,48.78
2018-08-20T20:31:17.056Z,48.83
2018-08-20T20:33:43.797Z,48.80
2018-08-20T20:36:10.432Z,48.71
2018-08-20T20:38:37.171Z,48.70
2018-08-20T20:41:03.791Z,48.73
2018-08-20T20:43:30.393Z,48.70
2018-08-20T20:45:59.271Z,48.70
2018-08-20T20:48:25.904Z,48.63
2018-08-20T20:50:52.616Z,48.65
2018-08-20T20:53:19.252Z,48.56
2018-08-20T20:55:45.992Z,48.55
2018-08-20T20:58:12.671Z,48.52
2018-08-20T21:00:42.206Z,48.54
2018-08-20T21:03:08.855Z,48.49
2018-08-20T21:05:35.495Z,48.42
2018-08-20T21:08:02.154Z,48.49
2018-08-20T21:10:28.785Z,48.45
2018-08-20T21:12:55.429Z,48.37
2018-08-20T21:15:22.074Z,48.29
2018-08-20T21:17:48.715Z,48.32
2018-08-20T21:20:15.363Z,48.36
2018-08-20T21:22:45.558Z,48.28
2018-08-20T21:25:12.193Z,48.24
2018-08-20T21:27:38.837Z,48.24
2018-08-20T21:30:08.611Z,48.26
2018-08-20T21:32:36.584Z,48.23
2018-08-20T21:35:01.893Z,48.20
2018-08-20T21:37:28.521Z,48.24
2018-08-20T21:39:55.166Z,48.16
2018-08-20T21:42:21.804Z,48.16
2018-08-20T21:44:48.446Z,48.06
2018-08-20T21:47:15.155Z,48.05
2018-08-20T21:49:41.788Z,48.07
2018-08-20T21:52:08.469Z,48.06
2018-08-20T21:54:35.112Z,48.04
2018-08-20T21:57:01.796Z,47.93
2018-08-20T21:59:28.535Z,47.96
2018-08-20T22:01:55.165Z,47.99
2018-08-20T22:04:21.839Z,47.96
2018-08-20T22:06:51.836Z,47.83
2018-08-20T22:09:18.487Z,47.90
2018-08-20T22:11:45.133Z,47.88
2018-08-20T22:14:11.760Z,47.82
2018-08-20T22:16:39.098Z,47.81
2018-08-20T22:19:05.794Z,47.70
2018-08-20T22:21:33.901Z,47.78
2018-08-20T22:23:59.175Z,47.76
2018-08-20T22:26:25.816Z,47.67
2018-08-20T22:28:52.486Z,47.70
2018-08-20T22:31:19.130Z,47.70
2018-08-20T22:33:45.803Z,47.61
2018-08-20T22:36:12.429Z,47.61
2018-08-20T22:38:39.056Z,47.56
2018-08-20T22:41:07.185Z,47.57
2018-08-20T22:43:32.496Z,47.49
2018-08-20T22:45:59.122Z,47.48
2018-08-20T22:48:25.765Z,47.53
2018-08-20T22:50:52.446Z,47.54
2018-08-20T22:53:19.117Z,47.43
2018-08-20T22:55:45.805Z,47.53
2018-08-20T22:58:13.980Z,47.39
2018-08-20T23:00:39.110Z,47.38
2018-08-20T23:03:05.784Z,47.39
2018-08-20T23:05:36.485Z,47.45
2018-08-20T23:08:03.324Z,47.40
2018-08-20T23:10:28.994Z,47.31
2018-08-20T23:12:55.689Z,47.37
2018-08-20T23:15:22.316Z,47.29
2018-08-20T23:17:48.953Z,47.29
2018-08-20T23:20:15.589Z,47.33
2018-08-20T23:22:42.263Z,47.31
2018-08-20T23:25:08.895Z,47.28
2018-08-20T23:27:35.574Z,47.28
2018-08-20T23:30:02.207Z,47.20
2018-08-20T23:32:28.840Z,47.19
2018-08-20T23:34:55.484Z,47.15
2018-08-20T23:37:22.125Z,47.17
2018-08-20T23:39:48.771Z,47.10
2018-08-20T23:42:15.407Z,47.14
2018-08-20T23:44:42.244Z,47.06
2018-08-20T23:47:08.839Z,47.02
2018-08-20T23:49:35.476Z,47.07
2018-08-20T23:52:02.148Z,47.08
2018-08-20T23:54:28.788Z,47.01
2018-08-20T23:56:55.431Z,47.02
2018-08-20T23:59:22.103Z,47.03
